createdAt,value
2018-07-24T04:00:23.268Z,14.60
2018-07-24T04:02:52.018Z,14.50
2018-07-24T04:05:20.719Z,14.50
2018-07-24T04:07:51.144Z,14.60
2018-07-24T04:10:20.984Z,14.70
2018-07-24T04:12:50.559Z,14.80
2018-07-24T04:15:19.475Z,14.80
2018-07-24T04:17:48.380Z,14.70
2018-07-24T04:20:17.043Z,14.80
2018-07-24T04:22:45.717Z,14.80
2018-07-24T04:25:14.679Z,14.80
2018-07-24T04:27:43.498Z,14.80
2018-07-24T04:30:12.213Z,14.80
2018-07-24T04:32:41.010Z,14.80
2018-07-24T04:35:09.945Z,14.90
2018-07-24T04:37:38.946Z,15.00
2018-07-24T04:40:07.820Z,15.10
2018-07-24T04:42:36.715Z,15.30
2018-07-24T04:45:06.360Z,15.40
2018-07-24T04:47:35.812Z,15.50
2018-07-24T04:50:05.793Z,15.70
2018-07-24T04:52:37.575Z,15.80
2018-07-24T04:55:08.787Z,15.90
2018-07-24T04:57:38.591Z,16.00
2018-07-24T05:00:08.527Z,16.20
2018-07-24T05:02:37.264Z,16.40
2018-07-24T05:05:06.179Z,16.60
2018-07-24T05:07:34.945Z,16.70
2018-07-24T05:10:03.730Z,17.00
2018-07-24T05:12:33.120Z,17.10
2018-07-24T05:15:01.966Z,17.40
2018-07-24T05:17:31.975Z,17.50
2018-07-24T05:20:01.404Z,17.70
2018-07-24T05:22:30.921Z,17.80
2018-07-24T05:25:00.451Z,18.00
2018-07-24T05:27:30.711Z,18.20
2018-07-24T05:30:01.693Z,18.40
2018-07-24T05:32:31.695Z,18.50
2018-07-24T05:35:00.820Z,18.70
2018-07-24T05:37:30.725Z,18.90
2018-07-24T05:39:59.628Z,19.20
2018-07-24T05:42:29.556Z,19.30
2018-07-24T05:44:58.267Z,19.50
2018-07-24T05:47:27.121Z,19.60
2018-07-24T05:49:56.789Z,19.90
2018-07-24T05:52:27.119Z,20.10
2018-07-24T05:54:56.579Z,20.20
2018-07-24T05:57:25.332Z,20.50
2018-07-24T05:59:54.101Z,20.80
2018-07-24T06:02:22.927Z,21.10
2018-07-24T06:04:51.926Z,21.50
2018-07-24T06:07:20.769Z,21.80
2018-07-24T06:09:50.831Z,22.00
2018-07-24T06:12:20.535Z,22.00
2018-07-24T06:14:49.319Z,22.10
2018-07-24T06:17:18.127Z,22.20
2018-07-24T06:19:47.123Z,22.40
2018-07-24T06:22:15.879Z,22.60
2018-07-24T06:24:45.205Z,22.80
2018-07-24T06:27:13.951Z,23.00
2018-07-24T06:29:42.763Z,23.30
2018-07-24T06:32:11.986Z,23.40
2018-07-24T06:34:40.792Z,23.60
2018-07-24T06:37:10.788Z,23.80
2018-07-24T06:39:41.132Z,24.00
2018-07-24T06:42:12.507Z,24.20
2018-07-24T06:44:41.883Z,24.40
2018-07-24T06:47:10.837Z,25.00
2018-07-24T06:49:39.563Z,25.30
2018-07-24T06:52:08.384Z,25.30
2018-07-24T06:54:37.275Z,25.60
2018-07-24T06:57:08.039Z,25.60
2018-07-24T06:59:38.365Z,25.70
2018-07-24T07:02:07.486Z,25.60
2018-07-24T07:04:38.236Z,26.00
2018-07-24T07:07:07.232Z,26.50
2018-07-24T07:09:36.028Z,26.60
2018-07-24T07:12:04.772Z,26.50
2018-07-24T07:14:33.515Z,26.50
2018-07-24T07:17:02.406Z,26.80
2018-07-24T07:19:31.074Z,27.50
2018-07-24T07:21:59.723Z,27.80
2018-07-24T07:24:28.394Z,28.00
2018-07-24T07:26:57.021Z,27.90
2018-07-24T07:29:25.615Z,27.90
2018-07-24T07:31:54.232Z,28.00
2018-07-24T07:34:22.898Z,28.00
2018-07-24T07:36:51.653Z,27.70
2018-07-24T07:39:20.412Z,27.80
2018-07-24T07:41:49.266Z,27.90
2018-07-24T07:44:17.944Z,27.80
2018-07-24T07:46:46.591Z,27.60
2018-07-24T07:49:15.235Z,27.90
2018-07-24T07:51:43.905Z,28.10
2018-07-24T07:54:12.704Z,28.10
2018-07-24T07:56:41.338Z,28.10
2018-07-24T07:59:09.932Z,28.00
2018-07-24T08:01:38.669Z,28.00
2018-07-24T08:04:07.951Z,28.50
2018-07-24T08:06:37.147Z,29.20
2018-07-24T08:09:08.061Z,28.80
2018-07-24T08:11:37.065Z,29.10
2018-07-24T08:14:05.733Z,29.20
2018-07-24T08:16:34.543Z,29.30
2018-07-24T08:19:03.164Z,29.40
2018-07-24T08:21:32.423Z,29.60
2018-07-24T08:24:01.659Z,29.60
2018-07-24T08:26:30.357Z,29.80
2018-07-24T08:28:59.070Z,30.10
2018-07-24T08:31:27.666Z,30.50
2018-07-24T08:33:56.331Z,30.90
2018-07-24T08:36:25.410Z,31.20
2018-07-24T08:38:55.184Z,31.30
2018-07-24T08:41:25.308Z,31.60
2018-07-24T08:43:54.820Z,31.60
2018-07-24T08:46:23.607Z,32.30
2018-07-24T08:48:52.221Z,32.10
2018-07-24T08:51:21.934Z,32.00
2018-07-24T08:53:51.745Z,32.20
2018-07-24T08:56:22.907Z,32.40
2018-07-24T08:58:53.186Z,33.10
2018-07-24T09:01:22.735Z,34.00
2018-07-24T09:03:52.135Z,33.00
2018-07-24T09:06:22.982Z,32.90
2018-07-24T09:08:52.111Z,33.00
2018-07-24T09:11:21.272Z,33.90
2018-07-24T09:13:49.923Z,34.90
2018-07-24T09:16:18.590Z,34.60
2018-07-24T09:18:47.190Z,34.90
2018-07-24T09:21:15.771Z,34.30
2018-07-24T09:23:44.390Z,33.20
2018-07-24T09:26:13.105Z,33.50
2018-07-24T09:28:41.942Z,34.20
2018-07-24T09:31:10.548Z,35.50
2018-07-24T09:33:39.202Z,35.60
2018-07-24T09:36:07.903Z,36.10
2018-07-24T09:38:36.508Z,35.90
2018-07-24T09:41:05.089Z,35.80
2018-07-24T09:43:34.085Z,34.80
2018-07-24T09:46:02.755Z,34.60
2018-07-24T09:48:31.466Z,34.40
2018-07-24T09:51:00.165Z,35.00
2018-07-24T09:53:28.816Z,35.10
2018-07-24T09:55:57.459Z,35.30
2018-07-24T09:58:26.155Z,36.10
2018-07-24T10:00:59.931Z,36.60
2018-07-24T10:03:30.501Z,37.40
2018-07-24T10:05:59.103Z,37.50
2018-07-24T10:08:27.727Z,36.10
2018-07-24T10:10:56.744Z,35.60
2018-07-24T10:13:25.716Z,35.80
2018-07-24T10:15:54.808Z,35.60
2018-07-24T10:18:23.615Z,36.00
2018-07-24T10:20:52.256Z,35.70
2018-07-24T10:23:20.931Z,36.10
2018-07-24T10:25:49.627Z,36.30
2018-07-24T10:28:18.249Z,36.50
2018-07-24T10:30:46.939Z,36.10
2018-07-24T10:33:15.580Z,36.20
2018-07-24T10:35:44.205Z,36.80
2018-07-24T10:38:12.859Z,36.70
2018-07-24T10:40:42.231Z,37.10
2018-07-24T10:43:10.949Z,37.10
2018-07-24T10:45:39.666Z,37.20
2018-07-24T10:48:08.423Z,36.30
2018-07-24T10:50:37.045Z,35.20
2018-07-24T10:53:05.711Z,35.20
2018-07-24T10:55:34.298Z,35.90
2018-07-24T10:58:03.007Z,36.20
2018-07-24T11:00:31.609Z,36.30
2018-07-24T11:03:00.317Z,35.50
2018-07-24T11:05:28.951Z,34.50
2018-07-24T11:07:57.687Z,35.00
2018-07-24T11:10:26.573Z,35.20
2018-07-24T11:12:55.211Z,36.00
2018-07-24T11:15:23.877Z,37.00
2018-07-24T11:17:52.525Z,35.80
2018-07-24T11:20:21.519Z,34.40
2018-07-24T11:22:50.211Z,33.00
2018-07-24T11:25:18.870Z,31.50
2018-07-24T11:27:47.520Z,30.60
2018-07-24T11:30:16.167Z,29.80
2018-07-24T11:32:44.753Z,29.40
2018-07-24T11:35:13.486Z,29.10
2018-07-24T11:37:42.113Z,29.70
2018-07-24T11:40:10.759Z,31.20
2018-07-24T11:42:39.340Z,32.60
2018-07-24T11:45:08.131Z,33.70
2018-07-24T11:47:36.731Z,34.30
2018-07-24T11:50:05.756Z,35.00
2018-07-24T11:52:34.691Z,34.70
2018-07-24T11:55:03.371Z,34.20
2018-07-24T11:57:32.050Z,35.00
2018-07-24T12:00:01.122Z,35.20
2018-07-24T12:02:29.780Z,34.20
2018-07-24T12:04:58.391Z,32.40
2018-07-24T12:07:27.022Z,30.90
2018-07-24T12:09:55.683Z,30.20
2018-07-24T12:12:24.743Z,30.90
2018-07-24T12:14:53.751Z,31.80
2018-07-24T12:17:22.570Z,32.40
2018-07-24T12:19:51.171Z,32.60
2018-07-24T12:22:19.828Z,32.70
2018-07-24T12:24:48.509Z,33.20
2018-07-24T12:27:17.152Z,33.30
2018-07-24T12:29:45.884Z,33.20
2018-07-24T12:32:14.511Z,33.10
2018-07-24T12:34:43.150Z,33.10
2018-07-24T12:37:12.216Z,33.30
2018-07-24T12:39:40.823Z,33.50
2018-07-24T12:42:09.778Z,33.40
2018-07-24T12:44:38.571Z,33.80
2018-07-24T12:47:07.284Z,33.30
2018-07-24T12:49:36.311Z,33.70
2018-07-24T12:52:05.059Z,34.10
2018-07-24T12:54:33.720Z,33.90
2018-07-24T12:57:02.434Z,33.70
2018-07-24T12:59:31.187Z,33.80
2018-07-24T13:01:59.795Z,33.60
2018-07-24T13:04:28.427Z,33.60
2018-07-24T13:06:57.027Z,33.70
2018-07-24T13:09:25.698Z,33.80
2018-07-24T13:11:54.331Z,33.20
2018-07-24T13:14:23.219Z,33.10
2018-07-24T13:16:51.828Z,32.80
2018-07-24T13:19:20.714Z,32.70
2018-07-24T13:21:49.415Z,32.40
2018-07-24T13:24:18.063Z,32.30
2018-07-24T13:26:46.994Z,32.20
2018-07-24T13:29:15.610Z,31.70
2018-07-24T13:31:44.244Z,31.80
2018-07-24T13:34:13.007Z,31.60
2018-07-24T13:36:41.713Z,31.50
2018-07-24T13:39:11.403Z,31.40
2018-07-24T13:41:40.311Z,31.30
2018-07-24T13:44:09.355Z,31.30
2018-07-24T13:46:37.981Z,31.20
2018-07-24T13:49:06.619Z,30.50
2018-07-24T13:51:35.217Z,29.90
2018-07-24T13:54:04.120Z,29.30
2018-07-24T13:56:32.748Z,29.20
2018-07-24T13:59:01.439Z,29.00
2018-07-24T14:01:30.116Z,28.80
2018-07-24T14:03:58.710Z,29.00
2018-07-24T14:06:27.287Z,29.10
2018-07-24T14:08:55.946Z,29.00
2018-07-24T14:11:24.554Z,29.10
2018-07-24T14:13:53.172Z,29.80
2018-07-24T14:16:21.774Z,30.30
2018-07-24T14:18:50.361Z,31.00
2018-07-24T14:21:18.970Z,31.10
2018-07-24T14:23:47.616Z,31.30
2018-07-24T14:26:16.227Z,31.60
2018-07-24T14:28:44.850Z,31.40
2018-07-24T14:31:13.420Z,31.40
2018-07-24T14:33:42.227Z,31.40
2018-07-24T14:36:10.843Z,31.20
2018-07-24T14:38:39.394Z,31.10
2018-07-24T14:41:08.042Z,30.90
2018-07-24T14:43:36.682Z,30.90
2018-07-24T14:46:05.491Z,30.60
2018-07-24T14:48:34.170Z,30.50
2018-07-24T14:51:02.871Z,30.30
2018-07-24T14:53:31.505Z,30.10
2018-07-24T14:56:00.143Z,30.20
2018-07-24T14:58:28.845Z,30.20
2018-07-24T15:00:57.493Z,30.30
2018-07-24T15:03:26.087Z,30.50
2018-07-24T15:05:54.662Z,30.20
2018-07-24T15:08:23.284Z,30.30
2018-07-24T15:10:52.113Z,30.40
2018-07-24T15:13:20.723Z,30.30
2018-07-24T15:15:50.050Z,29.90
2018-07-24T15:18:19.399Z,30.00
2018-07-24T15:20:48.218Z,30.30
2018-07-24T15:23:16.852Z,30.50
2018-07-24T15:25:45.468Z,30.40
2018-07-24T15:28:14.015Z,30.30
2018-07-24T15:30:42.646Z,30.10
2018-07-24T15:33:11.283Z,30.20
2018-07-24T15:35:42.250Z,30.00
2018-07-24T15:38:11.283Z,30.00
2018-07-24T15:40:40.589Z,29.90
2018-07-24T15:43:09.385Z,29.70
2018-07-24T15:45:38.355Z,29.80
2018-07-24T15:48:07.315Z,29.70
2018-07-24T15:50:36.063Z,29.60
2018-07-24T15:53:05.157Z,29.20
2018-07-24T15:55:33.891Z,28.80
2018-07-24T15:58:02.570Z,28.60
2018-07-24T16:00:31.479Z,28.60
2018-07-24T16:03:00.184Z,28.60
2018-07-24T16:05:29.182Z,28.60
2018-07-24T16:07:58.174Z,28.70
2018-07-24T16:10:26.872Z,28.80
2018-07-24T16:12:55.557Z,28.80
2018-07-24T16:15:24.544Z,28.90
2018-07-24T16:17:53.711Z,28.90
2018-07-24T16:20:22.448Z,29.10
2018-07-24T16:22:51.168Z,29.00
2018-07-24T16:25:19.871Z,29.20
2018-07-24T16:27:48.717Z,29.30
2018-07-24T16:30:17.704Z,29.30
2018-07-24T16:32:46.419Z,29.10
2018-07-24T16:35:15.359Z,29.00
2018-07-24T16:37:44.283Z,28.90
2018-07-24T16:40:12.996Z,28.80
2018-07-24T16:42:41.639Z,28.70
2018-07-24T16:45:10.228Z,28.30
2018-07-24T16:47:38.891Z,28.10
2018-07-24T16:50:07.772Z,28.00
2018-07-24T16:52:37.163Z,27.80
2018-07-24T16:55:06.595Z,27.60
2018-07-24T16:57:35.258Z,27.50
2018-07-24T17:00:04.512Z,27.40
2018-07-24T17:02:34.018Z,27.30
2018-07-24T17:05:02.685Z,27.30
2018-07-24T17:07:31.346Z,27.10
2018-07-24T17:09:59.978Z,26.80
2018-07-24T17:12:28.664Z,26.60
2018-07-24T17:14:57.398Z,26.50
2018-07-24T17:17:26.034Z,26.30
2018-07-24T17:19:54.720Z,26.30
2018-07-24T17:22:23.423Z,26.20
2018-07-24T17:24:52.298Z,26.00
2018-07-24T17:27:21.200Z,25.90
2018-07-24T17:29:50.119Z,25.80
2018-07-24T17:32:18.775Z,25.70
2018-07-24T17:34:47.398Z,25.40
2018-07-24T17:37:16.077Z,25.30
2018-07-24T17:39:44.823Z,25.20
2018-07-24T17:42:13.407Z,25.00
2018-07-24T17:44:42.119Z,24.90
2018-07-24T17:47:10.817Z,24.80
2018-07-24T17:49:40.709Z,24.70
2018-07-24T17:52:10.971Z,24.60
2018-07-24T17:54:40.484Z,24.40
2018-07-24T17:57:09.889Z,24.30
2018-07-24T17:59:39.307Z,24.30
2018-07-24T18:02:08.688Z,24.10
2018-07-24T18:04:37.284Z,23.90
2018-07-24T18:07:06.211Z,23.80
2018-07-24T18:09:34.811Z,23.60
2018-07-24T18:12:03.428Z,23.30
2018-07-24T18:14:32.192Z,23.00
2018-07-24T18:17:00.886Z,22.80
2018-07-24T18:19:29.541Z,22.60
2018-07-24T18:21:58.260Z,22.40
2018-07-24T18:24:27.346Z,22.20
2018-07-24T18:26:56.137Z,22.00
2018-07-24T18:29:24.867Z,21.90
2018-07-24T18:31:53.935Z,21.80
2018-07-24T18:34:22.690Z,21.70
2018-07-24T18:36:51.407Z,21.50
2018-07-24T18:39:20.064Z,21.40
2018-07-24T18:41:49.190Z,21.20
2018-07-24T18:44:17.852Z,21.00
2018-07-24T18:46:46.578Z,20.90
2018-07-24T18:49:15.339Z,20.80
2018-07-24T18:51:43.946Z,20.70
2018-07-24T18:54:12.569Z,20.60
2018-07-24T18:56:41.368Z,20.40
2018-07-24T18:59:10.407Z,20.30
2018-07-24T19:01:39.975Z,20.20
2018-07-24T19:04:09.168Z,20.10
2018-07-24T19:06:37.932Z,20.00
2018-07-24T19:09:08.498Z,19.90
2018-07-24T19:11:37.327Z,19.90
2018-07-24T19:14:06.080Z,19.80
2018-07-24T19:16:34.801Z,19.70
2018-07-24T19:19:03.411Z,19.50
2018-07-24T19:21:32.190Z,19.40
2018-07-24T19:24:00.912Z,19.30
2018-07-24T19:26:29.595Z,19.20
2018-07-24T19:28:58.303Z,19.10
2018-07-24T19:31:27.022Z,19.10
2018-07-24T19:33:55.797Z,19.00
2018-07-24T19:36:24.464Z,18.90
2018-07-24T19:38:53.247Z,18.80
2018-07-24T19:41:23.420Z,18.70
2018-07-24T19:43:52.329Z,18.60
2018-07-24T19:46:21.250Z,18.60
2018-07-24T19:48:50.774Z,18.50
2018-07-24T19:51:19.539Z,18.50
2018-07-24T19:53:48.371Z,18.40
2018-07-24T19:56:17.209Z,18.40
2018-07-24T19:58:46.076Z,18.40
2018-07-24T20:01:14.843Z,18.30
2018-07-24T20:03:43.654Z,18.30
2018-07-24T20:06:12.513Z,18.20
2018-07-24T20:08:41.582Z,18.20
2018-07-24T20:11:10.616Z,18.10
2018-07-24T20:13:40.635Z,18.10
2018-07-24T20:16:10.152Z,18.10
2018-07-24T20:18:40.295Z,18.10
2018-07-24T20:21:11.047Z,18.10
2018-07-24T20:23:40.118Z,18.10
2018-07-24T20:26:09.426Z,18.10
2018-07-24T20:28:38.318Z,18.20
2018-07-24T20:31:07.427Z,18.10
2018-07-24T20:33:36.271Z,18.10
2018-07-24T20:36:05.271Z,18.20
2018-07-24T20:38:34.091Z,18.20
2018-07-24T20:41:03.532Z,18.20
2018-07-24T20:43:32.636Z,18.20
2018-07-24T20:46:01.578Z,18.20
2018-07-24T20:48:30.558Z,18.20
2018-07-24T20:50:59.924Z,18.20
2018-07-24T20:53:29.193Z,18.20
2018-07-24T20:55:58.616Z,18.20
2018-07-24T20:58:27.448Z,18.20
2018-07-24T21:00:56.269Z,18.10
2018-07-24T21:03:24.966Z,18.20
2018-07-24T21:05:53.729Z,18.20
2018-07-24T21:08:22.801Z,18.20
2018-07-24T21:10:51.551Z,18.10
2018-07-24T21:13:20.303Z,18.10
2018-07-24T21:15:49.352Z,18.10
2018-07-24T21:18:18.114Z,18.10
2018-07-24T21:20:47.136Z,18.20
2018-07-24T21:23:16.075Z,18.10
2018-07-24T21:25:44.862Z,18.00
2018-07-24T21:28:13.583Z,18.00
2018-07-24T21:30:42.312Z,18.00
2018-07-24T21:33:11.232Z,17.90
2018-07-24T21:35:39.927Z,17.90
2018-07-24T21:38:08.749Z,17.90
2018-07-24T21:40:38.182Z,17.90
2018-07-24T21:43:06.927Z,17.80
2018-07-24T21:45:35.631Z,17.80
2018-07-24T21:48:04.774Z,17.80
2018-07-24T21:50:33.523Z,17.80
2018-07-24T21:53:02.335Z,17.80
2018-07-24T21:55:31.021Z,17.80
2018-07-24T21:58:00.295Z,17.70
